Time;durP1;ratioP1;P1;durP2;ratioP2;P2;SDS_P1;SDS_P2;PMS_P1;PMS_P2;Temp;Humidity;BMP_temperature;BMP_pressure;BME280_temperature;BME280_humidity;BME280_pressure;Samples;Min_cycle;Max_cycle;Signal;HPM_P1;HPM_P2
2022/04/18 00:04:02;;;;;;;;;;;;;;;13.00;39.74;100125.19;5006350;28;19970;-91
2022/04/18 00:06:35;;;;;;;;;;;;;;;12.97;39.99;100130.88;5009000;28;19924;-91
2022/04/18 00:12:13;;;;;;;;;;;;;;;12.90;40.33;100126.09;5025358;28;20401;-90
2022/04/18 00:18:05;;;;;;;;;;;;;;;12.86;41.37;100135.44;5010544;28;19928;-90
2022/04/18 00:23:36;;;;;;;;;;;;;;;12.70;42.85;100135.19;5025354;28;21165;-90
2022/04/18 00:26:47;;;;;;;;;;;;;;;;;;;;;
2022/04/18 00:29:15;;;;;;;;;;;;;;;12.69;43.02;100125.47;5046643;28;19927;-91
2022/04/18 00:31:54;;;;;;;;;;;;;;;12.70;42.79;100121.78;5032423;28;19925;-90
2022/04/18 00:44:32;;;;;;;;;;;;;;;12.66;42.83;100120.38;4988225;28;19964;-91
2022/04/18 01:12:30;;;;;;;;;;;;;;;12.28;44.72;100103.41;4958946;28;20303;-90
2022/04/18 01:18:15;;;;;;;;;;;;;;;12.23;44.56;100107.53;4900504;29;19931;-91
2022/04/18 01:28:58;;;;;;;;;;;;;;;12.18;44.11;100102.59;4910677;29;20005;-91
2022/04/18 01:39:12;;;;;;;;;;;;;;;12.21;43.02;100088.06;4959767;28;19929;-90
2022/04/18 01:41:38;;;;;;;;;;;;;;;12.22;43.32;100090.59;4964913;28;19925;-90
2022/04/18 01:44:16;;;;;;;;;;;;;;;;;;;;;
2022/04/18 01:46:45;;;;;;;;;;;;;;;12.14;44.22;100093.16;5016901;28;19932;-90
2022/04/18 01:55:29;;;;;;;;;;;;;;;12.04;44.82;100078.94;4977014;28;20336;-91
2022/04/18 01:57:56;;;;;;;;;;;;;;;12.07;45.20;100077.78;4982867;28;19933;-91
2022/04/18 02:00:27;;;;;;;;;;;;;;;12.04;45.06;100080.75;5007081;28;19926;-91
2022/04/18 02:05:58;;;;;;;;;;;;;;;12.02;45.03;100072.03;5026344;28;20266;-91
2022/04/18 02:11:37;;;;;;;;;;;;;;;12.00;44.84;100056.09;4999324;28;19932;-91
2022/04/18 02:20:28;;;;;;;;;;;;;;;11.89;45.74;100058.94;4936269;29;19951;-90
2022/04/18 02:23:28;;;;;;;;;;;;;;;11.81;46.38;100061.47;4932907;28;19933;-91
2022/04/18 02:26:25;;;;;;;;;;;;;;;;;;;;;
2022/04/18 02:29:15;;;;;;;;;;;;;;;11.64;47.53;100054.97;5008274;28;19925;-91
2022/04/18 02:35:34;;;;;;;;;;;;;;;11.45;48.21;100050.47;5031867;28;20379;-90
2022/04/18 02:38:00;;;;;;;;;;;;;;;11.46;48.28;100044.13;4982279;28;19969;-90
2022/04/18 02:43:44;;;;;;;;;;;;;;;11.22;48.73;100055.22;4967782;28;19977;-90
2022/04/18 02:46:33;;;;;;;;;;;;;;;11.27;48.98;100050.31;4967403;28;19945;-91
2022/04/18 02:49:25;;;;;;;;;;;;;;;11.12;49.26;100051.69;4988939;28;19922;-90
2022/04/18 02:55:05;;;;;;;;;;;;;;;11.15;49.17;100048.75;4961697;28;19923;-91
2022/04/18 02:57:35;;;;;;;;;;;;;;;11.18;49.24;100044.94;5025491;28;20288;-90
2022/04/18 03:00:01;;;;;;;;;;;;;;;11.26;49.05;100045.94;5016035;28;19928;-90
2022/04/18 03:05:54;;;;;;;;;;;;;;;11.25;49.05;100038.88;5062646;28;20264;-91
2022/04/18 03:08:46;;;;;;;;;;;;;;;11.28;48.75;100033.25;5046522;28;19982;-91
2022/04/18 03:12:00;;;;;;;;;;;;;;;11.28;48.60;100037.75;5053207;28;19997;-90
2022/04/18 03:14:28;;;;;;;;;;;;;;;11.28;48.38;100035.09;5069187;28;19920;-90
2022/04/18 03:16:56;;;;;;;;;;;;;;;11.31;48.24;100034.81;5053163;28;20014;-90
2022/04/18 03:22:39;;;;;;;;;;;;;;;11.29;48.35;100045.66;5046560;28;19920;-90
2022/04/18 03:25:08;;;;;;;;;;;;;;;11.31;48.92;100041.00;5053248;28;19931;-90
2022/04/18 03:27:36;;;;;;;;;;;;;;;11.19;49.11;100044.81;5053210;28;19920;-90
2022/04/18 03:33:26;;;;;;;;;;;;;;;11.15;48.95;100042.53;4987141;28;20426;-90
2022/04/18 03:41:42;;;;;;;;;;;;;;;11.11;48.51;100041.13;5070862;28;19981;-90
2022/04/18 03:44:26;;;;;;;;;;;;;;;11.10;48.29;100034.09;5070023;28;19959;-90
2022/04/18 03:58:54;;;;;;;;;;;;;;;10.90;49.05;100031.41;5015581;28;19964;-90
2022/04/18 04:04:09;;;;;;;;;;;;;;;10.85;49.05;100027.41;5070373;28;19973;-90
2022/04/18 04:16:08;;;;;;;;;;;;;;;10.84;49.28;100031.91;5008752;28;20354;-91
2022/04/18 04:19:18;;;;;;;;;;;;;;;;;;;;;
2022/04/18 04:22:38;;;;;;;;;;;;;;;;;;;;;
2022/04/18 04:24:58;;;;;;;;;;;;;;;10.76;49.31;100038.94;5014263;28;19924;-90
2022/04/18 04:31:30;;;;;;;;;;;;;;;;;;;;;
2022/04/18 04:33:59;;;;;;;;;;;;;;;10.70;49.73;100043.00;5046472;28;19978;-90
2022/04/18 04:39:20;;;;;;;;;;;;;;;10.63;50.04;100040.03;5027927;28;19927;-90
2022/04/18 04:42:17;;;;;;;;;;;;;;;10.69;50.04;100041.31;5030222;28;19920;-91
2022/04/18 04:44:44;;;;;;;;;;;;;;;10.64;49.94;100036.38;5041415;28;19920;-90
2022/04/18 04:47:54;;;;;;;;;;;;;;;10.68;49.84;100044.97;5028092;28;20524;-91
2022/04/18 04:51:03;;;;;;;;;;;;;;;10.63;49.89;100042.72;5029858;28;19967;-90
2022/04/18 04:53:28;;;;;;;;;;;;;;;10.62;49.93;100043.69;5031315;28;19974;-90
2022/04/18 04:55:53;;;;;;;;;;;;;;;10.59;50.04;100043.13;5051789;28;19947;-91
2022/04/18 04:58:21;;;;;;;;;;;;;;;10.61;50.48;100044.69;5047861;28;19924;-90
2022/04/18 05:04:37;;;;;;;;;;;;;;;;;;;;;
2022/04/18 05:13:17;;;;;;;;;;;;;;;10.49;51.01;100039.59;5058630;28;19986;-90
2022/04/18 05:19:54;;;;;;;;;;;;;;;;;;;;;
2022/04/18 05:25:27;;;;;;;;;;;;;;;10.46;51.46;100037.19;5002258;28;19921;-90
2022/04/18 05:28:14;;;;;;;;;;;;;;;10.47;51.41;100033.53;5027319;28;19939;-90
2022/04/18 05:33:45;;;;;;;;;;;;;;;10.50;51.30;100034.09;4976553;28;19918;-90
2022/04/18 05:36:11;;;;;;;;;;;;;;;10.52;51.44;100034.81;4995516;28;19931;-90
2022/04/18 05:38:36;;;;;;;;;;;;;;;10.54;52.01;100040.00;5050370;28;20031;-90
2022/04/18 05:41:33;;;;;;;;;;;;;;;;;;;;;
2022/04/18 05:44:28;;;;;;;;;;;;;;;10.61;52.15;100033.13;5068882;28;19942;-90
2022/04/18 05:47:13;;;;;;;;;;;;;;;10.65;52.31;100037.22;5050045;28;19975;-90
2022/04/18 05:49:38;;;;;;;;;;;;;;;10.66;52.25;100041.59;5051066;28;19920;-90
2022/04/18 05:52:04;;;;;;;;;;;;;;;10.68;52.06;100040.47;5051138;28;19924;-91
2022/04/18 05:57:58;;;;;;;;;;;;;;;;;;;;;
2022/04/18 06:03:37;;;;;;;;;;;;;;;10.84;53.16;100047.13;5068452;28;20385;-90
2022/04/18 06:06:24;;;;;;;;;;;;;;;10.83;53.05;100048.97;5051093;28;19921;-90
2022/04/18 06:09:15;;;;;;;;;;;;;;;10.84;53.35;100058.69;5046122;28;19916;-90
2022/04/18 06:11:41;;;;;;;;;;;;;;;10.87;53.55;100061.06;5037007;28;20019;-90
2022/04/18 06:14:08;;;;;;;;;;;;;;;10.89;53.61;100063.66;5049398;28;20023;-90
2022/04/18 06:16:34;;;;;;;;;;;;;;;10.88;53.70;100070.81;5046709;28;19935;-90
2022/04/18 06:25:08;;;;;;;;;;;;;;;10.95;53.74;100068.44;5068351;28;19982;-90
2022/04/18 06:34:21;;;;;;;;;;;;;;;11.00;53.40;100068.88;4937357;28;20128;-90
2022/04/18 06:36:46;;;;;;;;;;;;;;;11.01;53.21;100073.25;4947182;28;20287;-90
2022/04/18 06:39:12;;;;;;;;;;;;;;;11.04;52.35;100067.63;4994838;28;19966;-91
2022/04/18 06:41:37;;;;;;;;;;;;;;;11.10;52.23;100074.25;5012340;28;19943;-90
2022/04/18 06:44:02;;;;;;;;;;;;;;;11.14;51.48;100070.28;5054451;28;20280;-90
2022/04/18 06:46:31;;;;;;;;;;;;;;;11.13;51.44;100074.81;5054589;28;19924;-91
2022/04/18 06:59:25;;;;;;;;;;;;;;;;;;;;;
2022/04/18 07:01:54;;;;;;;;;;;;;;;11.36;49.13;100072.75;4980780;28;19932;-90
2022/04/18 07:04:57;;;;;;;;;;;;;;;11.39;48.95;100080.50;4973120;28;19926;-90
2022/04/18 07:07:24;;;;;;;;;;;;;;;11.53;48.77;100076.53;5056712;28;20811;-91
2022/04/18 07:10:50;;;;;;;;;;;;;;;;;;;;;
2022/04/18 07:13:25;;;;;;;;;;;;;;;11.54;47.74;100065.69;5027847;28;20269;-91
2022/04/18 07:15:54;;;;;;;;;;;;;;;11.54;47.28;100063.00;4999839;28;19917;-91
2022/04/18 07:18:22;;;;;;;;;;;;;;;11.57;46.16;100069.91;5029162;28;19924;-90
2022/04/18 07:20:48;;;;;;;;;;;;;;;11.58;46.21;100075.13;5052263;28;19916;-91
2022/04/18 07:26:26;;;;;;;;;;;;;;;11.61;46.94;100071.31;5071044;28;19982;-90
2022/04/18 07:28:59;;;;;;;;;;;;;;;11.70;47.91;100074.97;5052724;28;19920;-90
2022/04/18 07:31:32;;;;;;;;;;;;;;;11.73;46.76;100078.22;5053884;28;19984;-90
2022/04/18 07:34:34;;;;;;;;;;;;;;;;;;;;;
2022/04/18 07:40:04;;;;;;;;;;;;;;;11.74;45.98;100068.34;5047217;28;19927;-89
2022/04/18 07:42:29;;;;;;;;;;;;;;;11.70;46.23;100066.94;5052601;28;19924;-90
2022/04/18 07:45:33;;;;;;;;;;;;;;;11.74;45.92;100060.31;5052966;28;19917;-90
2022/04/18 07:51:39;;;;;;;;;;;;;;;11.80;45.88;100055.25;4988579;28;20346;-90
2022/04/18 07:57:16;;;;;;;;;;;;;;;11.93;45.60;100053.13;4930643;29;20037;-90
2022/04/18 07:59:46;;;;;;;;;;;;;;;11.97;45.43;100049.19;4915351;29;20387;-90
2022/04/18 08:02:12;;;;;;;;;;;;;;;11.96;45.77;100044.81;4981136;28;19935;-90
2022/04/18 08:08:10;;;;;;;;;;;;;;;12.04;46.11;100043.25;4949722;29;19934;-90
2022/04/18 08:11:17;;;;;;;;;;;;;;;;;;;;;
2022/04/18 08:13:55;;;;;;;;;;;;;;;12.06;45.09;100041.25;4971284;28;19996;-90
2022/04/18 08:19:33;;;;;;;;;;;;;;;12.07;45.72;100040.25;4968754;28;20036;-90
2022/04/18 08:22:10;;;;;;;;;;;;;;;12.08;45.72;100037.44;4953218;28;19918;-90
2022/04/18 08:28:35;;;;;;;;;;;;;;;12.17;44.87;100039.25;4910058;29;19927;-90
2022/04/18 08:43:56;;;;;;;;;;;;;;;;;;;;;
2022/04/18 08:46:44;;;;;;;;;;;;;;;12.20;43.58;100033.59;4979235;28;19922;-90
2022/04/18 08:58:39;;;;;;;;;;;;;;;12.45;45.34;100023.22;4943752;29;19923;-90
2022/04/18 09:04:30;;;;;;;;;;;;;;;12.52;46.28;100022.47;4904106;29;19923;-90
2022/04/18 09:07:23;;;;;;;;;;;;;;;12.53;44.77;100026.00;4905931;28;20022;-90
2022/04/18 09:22:46;;;;;;;;;;;;;;;12.68;44.32;100016.44;4947074;28;20450;-90
2022/04/18 09:31:40;;;;;;;;;;;;;;;12.68;44.46;100008.38;4909036;29;20018;-91
2022/04/18 09:34:17;;;;;;;;;;;;;;;12.79;44.13;100012.72;4924645;28;19925;-91
2022/04/18 09:36:46;;;;;;;;;;;;;;;12.80;44.65;100007.22;4962565;28;20020;-91
2022/04/18 09:42:14;;;;;;;;;;;;;;;12.77;44.75;100002.16;5000888;28;19921;-91
2022/04/18 09:44:42;;;;;;;;;;;;;;;12.83;44.95;100001.53;5037151;28;19916;-91
2022/04/18 09:47:47;;;;;;;;;;;;;;;;;;;;;
2022/04/18 09:50:58;;;;;;;;;;;;;;;12.85;45.38;99983.44;4986969;28;19924;-91
2022/04/18 09:59:22;;;;;;;;;;;;;;;12.98;44.79;99977.69;5006922;28;19978;-91
2022/04/18 10:01:55;;;;;;;;;;;;;;;13.01;44.77;99980.06;4973866;28;20372;-91
2022/04/18 11:33:23;;;;;;;;;;;;;;;14.11;42.55;99901.63;5667631;23;20539;-92
2022/04/18 11:35:48;;;;;;;;;;;;;;;14.13;42.58;99894.22;4973435;28;19933;-93
2022/04/18 11:38:14;;;;;;;;;;;;;;;14.15;43.72;99889.53;4971394;28;19921;-89
2022/04/18 11:40:39;;;;;;;;;;;;;;;14.06;44.56;99896.72;4971362;28;20289;-89
2022/04/18 11:43:12;;;;;;;;;;;;;;;14.12;44.70;99882.63;4956243;28;20009;-89
2022/04/18 11:45:37;;;;;;;;;;;;;;;14.13;43.64;99881.63;4954948;28;19922;-90
2022/04/18 11:48:04;;;;;;;;;;;;;;;14.29;43.58;99877.31;4969303;28;19992;-89
2022/04/18 11:50:29;;;;;;;;;;;;;;;14.32;42.34;99885.06;4966476;28;19922;-90
2022/04/18 11:53:02;;;;;;;;;;;;;;;14.25;44.53;99875.97;4954367;28;19926;-90
2022/04/18 11:55:27;;;;;;;;;;;;;;;14.20;44.55;99881.84;4970171;28;19945;-90
2022/04/18 11:57:52;;;;;;;;;;;;;;;14.23;43.23;99865.38;4954032;28;20347;-89
2022/04/18 12:08:31;;;;;;;;;;;;;;;14.45;42.97;99864.78;4972089;28;20552;-90
2022/04/18 12:10:57;;;;;;;;;;;;;;;14.42;44.56;99858.84;4970953;28;19921;-90
2022/04/18 12:13:22;;;;;;;;;;;;;;;14.41;44.68;99863.41;4971212;28;20013;-90
2022/04/18 12:15:48;;;;;;;;;;;;;;;14.37;46.01;99861.22;4971416;28;19921;-90
2022/04/18 12:18:15;;;;;;;;;;;;;;;14.45;43.95;99847.78;4971583;28;20481;-90
2022/04/18 12:20:50;;;;;;;;;;;;;;;14.57;44.23;99849.16;4953463;28;20052;-90
2022/04/18 12:23:25;;;;;;;;;;;;;;;14.58;43.33;99848.16;4953313;28;19922;-90
2022/04/18 12:25:51;;;;;;;;;;;;;;;14.71;43.24;99850.38;4953581;28;19941;-90
2022/04/18 12:28:18;;;;;;;;;;;;;;;14.67;43.71;99843.66;4953447;28;20389;-90
2022/04/18 12:30:44;;;;;;;;;;;;;;;14.65;43.25;99840.25;4951278;28;19921;-90
2022/04/18 12:33:20;;;;;;;;;;;;;;;14.59;45.79;99832.84;4948648;28;19930;-90
2022/04/18 12:35:54;;;;;;;;;;;;;;;14.57;44.33;99830.31;4951210;28;19925;-90
2022/04/18 12:41:35;;;;;;;;;;;;;;;14.90;41.64;99817.72;4936186;29;19970;-88
2022/04/18 12:44:01;;;;;;;;;;;;;;;14.77;42.99;99815.53;4941811;28;20395;-88
2022/04/18 12:46:30;;;;;;;;;;;;;;;14.71;43.65;99812.69;4957608;28;19921;-88
2022/04/18 12:48:55;;;;;;;;;;;;;;;14.82;43.79;99806.13;4949506;28;19922;-88
2022/04/18 12:51:30;;;;;;;;;;;;;;;14.95;42.76;99807.28;4963777;28;19926;-88
2022/04/18 12:53:56;;;;;;;;;;;;;;;15.09;41.25;99805.75;4949129;28;19965;-88
2022/04/18 12:56:26;;;;;;;;;;;;;;;15.07;41.97;99797.84;4948767;28;19953;-88
2022/04/18 12:58:51;;;;;;;;;;;;;;;15.02;41.92;99800.19;4949940;28;19961;-88
2022/04/18 13:01:23;;;;;;;;;;;;;;;14.99;42.13;99800.53;4965746;28;20370;-88
2022/04/18 13:03:51;;;;;;;;;;;;;;;14.95;43.34;99803.75;4950754;28;19922;-89
2022/04/18 13:06:23;;;;;;;;;;;;;;;15.00;41.62;99806.78;4968001;28;19926;-88
2022/04/18 13:08:48;;;;;;;;;;;;;;;15.14;41.47;99794.50;4951982;28;19929;-88
2022/04/18 13:11:14;;;;;;;;;;;;;;;15.02;42.40;99793.97;4949072;28;19926;-88
2022/04/18 13:13:39;;;;;;;;;;;;;;;14.98;42.46;99792.63;4952291;28;20359;-89
2022/04/18 13:16:21;;;;;;;;;;;;;;;15.04;43.62;99789.25;4969541;28;20287;-89
2022/04/18 13:18:46;;;;;;;;;;;;;;;15.04;43.29;99790.09;4951920;28;19918;-88
2022/04/18 13:21:12;;;;;;;;;;;;;;;15.11;43.06;99784.88;4968251;28;19929;-89
2022/04/18 13:23:37;;;;;;;;;;;;;;;15.07;42.94;99773.59;4968287;28;20386;-89
2022/04/18 13:26:02;;;;;;;;;;;;;;;15.14;41.45;99781.88;4966676;28;20402;-89
2022/04/18 13:28:27;;;;;;;;;;;;;;;15.14;42.02;99776.47;4952293;28;20298;-89
2022/04/18 13:31:28;;;;;;;;;;;;;;;15.17;42.72;99770.75;4965728;28;19925;-89
2022/04/18 14:28:40;;;;;;;;;;;;;;;15.73;40.16;99726.59;6039223;23;20009;-92
2022/04/18 14:31:31;;;;;;;;;;;;;;;15.71;41.55;99725.94;4923315;29;19931;-90
2022/04/18 14:34:11;;;;;;;;;;;;;;;15.73;40.86;99723.06;4907640;29;19927;-90
2022/04/18 14:37:00;;;;;;;;;;;;;;;15.81;40.65;99724.88;4907506;29;19981;-90
2022/04/18 14:42:24;;;;;;;;;;;;;;;15.73;41.76;99713.13;4895841;29;20357;-90
2022/04/18 14:44:51;;;;;;;;;;;;;;;15.72;41.45;99716.00;4893942;29;19919;-90
2022/04/18 14:47:38;;;;;;;;;;;;;;;15.60;42.87;99712.00;4893730;29;19979;-90
2022/04/18 14:53:15;;;;;;;;;;;;;;;15.86;38.76;99707.13;4908608;29;19923;-89
2022/04/18 14:55:46;;;;;;;;;;;;;;;15.69;41.50;99706.41;4879093;29;19923;-90
2022/04/18 14:58:26;;;;;;;;;;;;;;;15.74;40.88;99698.63;4896921;29;19923;-89
2022/04/18 15:01:15;;;;;;;;;;;;;;;15.89;40.56;99701.38;4909262;29;20627;-90
2022/04/18 15:03:51;;;;;;;;;;;;;;;15.75;40.83;99699.47;4881681;29;19923;-89
2022/04/18 15:06:24;;;;;;;;;;;;;;;15.73;40.40;99698.78;4906243;29;19923;-90
2022/04/18 15:08:51;;;;;;;;;;;;;;;15.67;42.26;99705.75;4909984;29;19923;-89
2022/04/18 15:11:25;;;;;;;;;;;;;;;15.64;41.38;99698.00;4907945;29;19923;-90
2022/04/18 15:14:04;;;;;;;;;;;;;;;;;;;;;
2022/04/18 15:16:32;;;;;;;;;;;;;;;15.92;40.64;99692.09;4906900;29;19941;-90
2022/04/18 15:19:11;;;;;;;;;;;;;;;15.84;41.33;99694.84;4893185;29;20906;-90
2022/04/18 15:21:46;;;;;;;;;;;;;;;15.76;40.83;99693.03;4894996;29;20017;-90
2022/04/18 15:24:18;;;;;;;;;;;;;;;15.81;40.87;99693.34;4879591;29;19966;-89
2022/04/18 15:26:43;;;;;;;;;;;;;;;15.91;41.27;99685.88;4888340;29;19935;-89
2022/04/18 15:29:11;;;;;;;;;;;;;;;15.84;39.70;99686.75;4895408;29;20367;-89
2022/04/18 15:34:26;;;;;;;;;;;;;;;15.74;42.49;99689.69;4892677;29;19965;-90
2022/04/18 15:36:54;;;;;;;;;;;;;;;15.85;40.85;99688.44;4896028;29;19918;-90
2022/04/18 15:39:25;;;;;;;;;;;;;;;15.81;42.67;99682.56;4893989;29;19927;-90
2022/04/18 15:41:53;;;;;;;;;;;;;;;15.86;41.15;99682.03;4876748;29;20627;-90
2022/04/18 15:44:39;;;;;;;;;;;;;;;15.88;40.69;99683.53;4882191;29;19927;-90
2022/04/18 15:47:13;;;;;;;;;;;;;;;15.95;41.10;99679.09;4872073;29;20272;-91
2022/04/18 15:49:52;;;;;;;;;;;;;;;16.00;39.36;99679.41;4869401;29;19933;-91
2022/04/18 15:52:20;;;;;;;;;;;;;;;16.11;37.63;99680.84;4884751;29;19922;-91
2022/04/18 15:54:51;;;;;;;;;;;;;;;16.18;37.13;99678.28;4885498;29;19942;-91
2022/04/18 15:57:17;;;;;;;;;;;;;;;16.16;37.53;99677.63;4896428;29;19923;-91
2022/04/18 15:59:42;;;;;;;;;;;;;;;16.21;36.86;99677.91;4888496;29;19935;-89
2022/04/18 16:27:29;;;;;;;;;;;;;;;15.97;39.71;99668.97;5857611;23;19970;-89
2022/04/18 16:33:55;;;;;;;;;;;;;;;;;;;;;
2022/04/18 16:45:48;;;;;;;;;;;;;;;15.94;39.74;99657.69;4859778;29;19959;-89
2022/04/18 16:48:15;;;;;;;;;;;;;;;15.90;39.83;99654.53;4917145;29;20007;-89
2022/04/18 16:50:41;;;;;;;;;;;;;;;15.86;39.90;99655.91;4909528;29;19919;-89
2022/04/18 16:53:09;;;;;;;;;;;;;;;15.90;40.33;99649.13;4912656;29;19921;-89
2022/04/18 16:55:35;;;;;;;;;;;;;;;15.87;40.11;99654.88;4912134;29;20288;-89
2022/04/18 16:58:03;;;;;;;;;;;;;;;15.87;39.40;99654.03;4927046;29;19918;-89
2022/04/18 17:00:30;;;;;;;;;;;;;;;15.90;39.70;99657.22;4896629;29;19921;-89
2022/04/18 17:02:58;;;;;;;;;;;;;;;15.89;39.89;99647.44;4938553;29;20490;-89
2022/04/18 17:05:28;;;;;;;;;;;;;;;15.87;38.64;99648.66;4930840;29;19922;-89
2022/04/18 17:07:55;;;;;;;;;;;;;;;15.86;39.83;99649.66;4911778;29;19922;-89
2022/04/18 17:10:22;;;;;;;;;;;;;;;15.86;39.06;99647.81;4929874;29;19937;-89
2022/04/18 17:12:52;;;;;;;;;;;;;;;15.85;40.02;99653.38;4927866;29;19919;-89
2022/04/18 17:15:22;;;;;;;;;;;;;;;15.82;41.72;99645.66;4890621;29;19930;-88
2022/04/18 17:21:07;;;;;;;;;;;;;;;15.80;39.44;99648.53;4867555;29;19962;-91
2022/04/18 17:23:32;;;;;;;;;;;;;;;15.84;40.22;99652.53;4872252;29;20010;-83
2022/04/18 17:25:57;;;;;;;;;;;;;;;15.83;41.16;99653.56;4914737;29;19966;-83
2022/04/18 17:28:22;;;;;;;;;;;;;;;15.86;41.67;99647.81;4905321;29;19973;-83
2022/04/18 17:30:48;;;;;;;;;;;;;;;15.82;42.31;99646.50;4914468;29;19926;-82
2022/04/18 17:33:13;;;;;;;;;;;;;;;15.82;41.52;99648.34;4916349;29;19984;-82
2022/04/18 17:35:38;;;;;;;;;;;;;;;15.79;40.60;99649.53;4913952;29;19930;-81
2022/04/18 17:38:04;;;;;;;;;;;;;;;15.79;42.64;99641.47;4914871;29;19969;-80
2022/04/18 17:40:30;;;;;;;;;;;;;;;15.78;42.71;99647.88;4915165;29;19919;-80
2022/04/18 17:42:55;;;;;;;;;;;;;;;15.79;41.01;99646.00;4929947;29;19923;-80
2022/04/18 17:45:20;;;;;;;;;;;;;;;15.77;42.83;99646.19;4897770;29;20371;-81
2022/04/18 17:47:50;;;;;;;;;;;;;;;15.79;41.69;99651.41;4931219;29;19918;-81
2022/04/18 17:50:15;;;;;;;;;;;;;;;15.77;40.39;99654.28;4914569;29;19918;-80
2022/04/18 17:52:41;;;;;;;;;;;;;;;15.78;43.58;99660.50;4914573;29;19915;-81
2022/04/18 17:57:54;;;;;;;;;;;;;;;15.76;42.99;99660.69;4913995;29;20023;-80
2022/04/18 18:00:20;;;;;;;;;;;;;;;15.77;40.90;99656.13;4914138;29;20415;-80
2022/04/18 18:02:45;;;;;;;;;;;;;;;15.76;41.73;99659.84;4896676;29;20005;-80
2022/04/18 18:05:11;;;;;;;;;;;;;;;15.77;43.39;99656.13;4898591;29;19974;-80
2022/04/18 18:07:36;;;;;;;;;;;;;;;15.77;44.78;99659.69;4909502;29;19915;-81
2022/04/18 18:10:03;;;;;;;;;;;;;;;15.78;45.32;99664.06;4910096;29;19926;-81
2022/04/18 18:12:28;;;;;;;;;;;;;;;15.79;47.12;99667.59;4898402;29;20065;-81
2022/04/18 18:14:57;;;;;;;;;;;;;;;15.76;44.83;99660.69;4913722;29;20049;-80
2022/04/18 18:17:22;;;;;;;;;;;;;;;15.75;45.00;99664.41;4912637;29;19919;-81
2022/04/18 18:19:47;;;;;;;;;;;;;;;15.76;46.31;99657.16;4895841;29;19919;-81
2022/04/18 18:22:13;;;;;;;;;;;;;;;15.74;45.17;99660.88;4899152;29;20013;-81
2022/04/18 18:24:38;;;;;;;;;;;;;;;15.72;43.81;99662.91;4917765;29;20030;-81
2022/04/18 18:27:03;;;;;;;;;;;;;;;15.69;42.95;99660.56;4917425;29;19929;-81
2022/04/18 18:29:29;;;;;;;;;;;;;;;15.68;43.17;99658.06;4921044;29;19986;-81
2022/04/18 18:31:54;;;;;;;;;;;;;;;15.67;43.29;99659.91;4937443;29;19922;-80
2022/04/18 18:34:19;;;;;;;;;;;;;;;15.63;43.60;99653.19;4905747;29;19922;-81
2022/04/18 18:36:44;;;;;;;;;;;;;;;15.61;43.37;99657.09;4896803;29;19919;-81
